createdAt,value
2018-06-24T00:00:07.810Z,99.99
2018-06-24T00:01:07.797Z,99.99
2018-06-24T00:02:07.785Z,99.99
2018-06-24T00:03:07.803Z,99.99
2018-06-24T00:04:07.753Z,99.99
2018-06-24T00:05:07.745Z,99.99
2018-06-24T00:06:07.731Z,99.99
2018-06-24T00:07:07.714Z,99.99
2018-06-24T00:08:07.701Z,99.99
2018-06-24T00:09:07.705Z,99.99
2018-06-24T00:10:07.685Z,99.99
2018-06-24T00:11:07.659Z,99.99
2018-06-24T00:12:07.643Z,99.99
2018-06-24T00:13:07.652Z,99.99
2018-06-24T00:14:07.611Z,99.99
2018-06-24T00:15:07.603Z,99.99
2018-06-24T00:16:07.584Z,99.99
2018-06-24T00:17:07.571Z,99.99
2018-06-24T00:18:07.554Z,99.99
2018-06-24T00:19:07.562Z,99.99
2018-06-24T00:20:07.552Z,99.99
2018-06-24T00:21:07.517Z,99.99
2018-06-24T00:22:07.518Z,99.99
2018-06-24T00:23:07.485Z,99.99
2018-06-24T00:24:07.472Z,99.99
2018-06-24T00:25:07.451Z,99.99
2018-06-24T00:26:07.454Z,99.99
2018-06-24T00:27:07.429Z,99.99
2018-06-24T00:28:07.427Z,99.99
2018-06-24T00:29:07.410Z,99.99
2018-06-24T00:30:07.388Z,99.99
2018-06-24T00:31:07.384Z,99.99
2018-06-24T00:32:07.359Z,99.99
2018-06-24T00:33:07.362Z,99.99
2018-06-24T00:34:07.326Z,99.99
2018-06-24T00:35:07.317Z,99.99
2018-06-24T00:36:07.304Z,99.99
2018-06-24T00:37:07.320Z,99.99
2018-06-24T00:38:07.282Z,99.99
2018-06-24T00:39:07.253Z,99.99
2018-06-24T00:40:07.242Z,99.99
2018-06-24T00:41:07.234Z,99.99
2018-06-24T00:42:07.217Z,99.99
2018-06-24T00:43:07.214Z,99.99
2018-06-24T00:44:07.219Z,99.99
2018-06-24T00:45:07.178Z,99.99
2018-06-24T00:46:07.166Z,99.99
2018-06-24T00:47:07.146Z,99.99
2018-06-24T00:48:07.127Z,99.99
2018-06-24T00:49:07.119Z,99.99
2018-06-24T00:50:07.120Z,99.99
2018-06-24T00:51:07.083Z,99.99
2018-06-24T00:52:07.075Z,99.99
2018-06-24T00:53:07.056Z,99.99
2018-06-24T00:54:07.049Z,99.99
2018-06-24T00:55:07.053Z,99.99
2018-06-24T00:56:07.020Z,99.99
2018-06-24T00:57:07.002Z,99.99
2018-06-24T00:58:06.988Z,99.99
2018-06-24T00:59:06.978Z,99.99
2018-06-24T01:00:06.983Z,99.99
2018-06-24T01:01:06.947Z,99.99
2018-06-24T01:02:06.944Z,99.99
2018-06-24T01:03:06.920Z,99.99
2018-06-24T01:04:06.901Z,99.99
2018-06-24T01:05:06.892Z,99.99
2018-06-24T01:06:06.886Z,99.99
2018-06-24T01:07:06.862Z,99.99
2018-06-24T01:08:06.859Z,99.99
2018-06-24T01:09:06.832Z,99.99
2018-06-24T01:10:06.829Z,99.99
2018-06-24T01:11:06.818Z,99.99
2018-06-24T01:12:06.791Z,99.99
2018-06-24T01:13:06.771Z,99.99
2018-06-24T01:14:06.769Z,99.99
2018-06-24T01:15:06.749Z,99.99
2018-06-24T01:16:06.765Z,99.99
2018-06-24T01:17:06.718Z,99.99
2018-06-24T01:18:06.708Z,99.99
2018-06-24T01:19:06.690Z,99.99
2018-06-24T01:20:06.674Z,99.99
2018-06-24T01:21:06.661Z,99.99
2018-06-24T01:22:06.676Z,99.99
2018-06-24T01:23:06.636Z,99.99
2018-06-24T01:24:06.617Z,99.99
2018-06-24T01:25:06.606Z,99.99
2018-06-24T01:26:06.618Z,99.99
2018-06-24T01:27:06.573Z,99.99
2018-06-24T01:28:06.560Z,99.99
2018-06-24T01:29:06.548Z,99.99
2018-06-24T01:30:06.527Z,99.99
2018-06-24T01:31:06.534Z,99.99
2018-06-24T01:32:06.504Z,99.99
2018-06-24T01:33:06.489Z,99.99
2018-06-24T01:34:06.489Z,99.99
2018-06-24T01:35:06.463Z,99.99
2018-06-24T01:36:06.444Z,99.99
2018-06-24T01:37:06.432Z,99.99
2018-06-24T01:38:06.415Z,99.99
2018-06-24T01:39:06.419Z,99.99
2018-06-24T01:40:06.386Z,99.99
2018-06-24T01:41:06.378Z,99.99
2018-06-24T01:42:06.365Z,99.99
2018-06-24T01:43:06.348Z,99.99
2018-06-24T01:44:06.329Z,99.99
2018-06-24T01:45:06.332Z,99.99
2018-06-24T01:46:06.296Z,99.99
2018-06-24T01:47:06.284Z,99.99
2018-06-24T01:48:06.281Z,99.99
2018-06-24T01:49:06.260Z,99.99
2018-06-24T01:50:06.241Z,99.99
2018-06-24T01:51:06.241Z,99.99
2018-06-24T01:52:06.212Z,99.99
2018-06-24T01:53:06.204Z,99.99
2018-06-24T01:54:06.180Z,99.99
2018-06-24T01:55:06.193Z,99.99
2018-06-24T01:56:06.157Z,99.99
2018-06-24T01:57:06.142Z,99.99
2018-06-24T01:58:06.123Z,99.99
2018-06-24T01:59:06.139Z,99.99
2018-06-24T02:00:06.103Z,99.99
2018-06-24T02:01:06.090Z,99.99
2018-06-24T02:02:06.065Z,99.99
2018-06-24T02:03:06.051Z,99.99
2018-06-24T02:04:06.050Z,99.99
2018-06-24T02:05:06.017Z,99.99
2018-06-24T02:06:06.023Z,99.99
2018-06-24T02:07:05.996Z,99.99
2018-06-24T02:08:05.982Z,99.99
2018-06-24T02:09:05.971Z,99.99
2018-06-24T02:10:05.947Z,99.99
2018-06-24T02:11:05.953Z,99.99
2018-06-24T02:12:05.925Z,99.99
2018-06-24T02:13:05.903Z,99.99
2018-06-24T02:14:05.890Z,99.99
2018-06-24T02:15:05.878Z,99.99
2018-06-24T02:16:05.893Z,99.99
2018-06-24T02:17:05.845Z,99.99
2018-06-24T02:18:05.831Z,99.99
2018-06-24T02:19:05.818Z,99.99
2018-06-24T02:20:05.805Z,99.99
2018-06-24T02:21:05.785Z,99.99
2018-06-24T02:22:05.788Z,99.99
2018-06-24T02:23:05.753Z,99.99
2018-06-24T02:24:05.742Z,99.99
2018-06-24T02:25:05.728Z,99.99
2018-06-24T02:26:05.716Z,99.99
2018-06-24T02:27:05.715Z,99.99
2018-06-24T02:28:05.686Z,99.99
2018-06-24T02:29:05.669Z,99.99
2018-06-24T02:30:05.650Z,99.99
2018-06-24T02:31:05.637Z,99.99
2018-06-24T02:32:05.639Z,99.99
2018-06-24T02:33:05.614Z,99.99
2018-06-24T02:34:05.615Z,99.99
2018-06-24T02:35:05.579Z,99.99
2018-06-24T02:36:05.563Z,99.99
2018-06-24T02:37:05.545Z,99.99
2018-06-24T02:38:05.570Z,99.99
2018-06-24T02:39:05.515Z,99.99
2018-06-24T02:40:05.513Z,99.99
2018-06-24T02:41:05.492Z,99.99
2018-06-24T02:42:05.471Z,99.99
2018-06-24T02:43:05.459Z,99.99
2018-06-24T02:44:05.462Z,99.99
2018-06-24T02:45:05.432Z,99.99
2018-06-24T02:46:05.417Z,99.99
2018-06-24T02:47:05.397Z,99.99
2018-06-24T02:48:05.421Z,99.99
2018-06-24T02:49:05.390Z,99.99
2018-06-24T02:50:05.359Z,99.99
2018-06-24T02:51:05.344Z,99.99
2018-06-24T02:52:05.329Z,99.99
2018-06-24T02:53:05.321Z,99.99
2018-06-24T02:54:05.314Z,99.99
2018-06-24T02:55:05.287Z,99.99
2018-06-24T02:56:05.276Z,99.99
2018-06-24T02:57:05.256Z,99.99
2018-06-24T02:58:05.238Z,99.99
2018-06-24T02:59:05.225Z,99.99
2018-06-24T03:00:05.227Z,99.99
2018-06-24T03:01:05.489Z,99.99
2018-06-24T03:02:05.183Z,99.99
2018-06-24T03:03:05.167Z,99.99
2018-06-24T03:04:05.148Z,99.99
2018-06-24T03:05:05.139Z,99.99
2018-06-24T03:06:05.134Z,99.99
2018-06-24T03:07:05.104Z,99.99
2018-06-24T03:08:05.090Z,99.99
2018-06-24T03:09:05.090Z,99.99
2018-06-24T03:10:05.059Z,99.99
2018-06-24T03:11:05.042Z,99.99
2018-06-24T03:12:05.032Z,99.99
2018-06-24T03:13:05.015Z,99.99
2018-06-24T03:14:05.009Z,99.99
2018-06-24T03:15:05.004Z,99.99
2018-06-24T03:16:04.993Z,99.99
2018-06-24T03:17:04.953Z,99.99
2018-06-24T03:18:04.939Z,99.99
2018-06-24T03:19:04.922Z,99.99
2018-06-24T03:20:04.910Z,99.99
2018-06-24T03:21:04.915Z,99.99
2018-06-24T03:22:04.881Z,99.99
2018-06-24T03:23:04.875Z,99.99
2018-06-24T03:24:04.852Z,99.99
2018-06-24T03:25:04.836Z,99.99
2018-06-24T03:26:04.839Z,99.99
2018-06-24T03:27:04.800Z,99.99
2018-06-24T03:28:04.794Z,99.99
2018-06-24T03:29:04.772Z,99.99
2018-06-24T03:30:04.762Z,99.99
2018-06-24T03:31:04.760Z,99.99
2018-06-24T03:32:04.750Z,99.99
2018-06-24T03:33:04.723Z,99.99
2018-06-24T03:34:04.707Z,99.99
2018-06-24T03:35:04.686Z,99.99
2018-06-24T03:36:04.687Z,99.99
2018-06-24T03:37:04.662Z,99.99
2018-06-24T03:38:04.640Z,99.99
2018-06-24T03:39:04.620Z,99.99
2018-06-24T03:40:04.604Z,99.99
2018-06-24T03:41:04.597Z,99.99
2018-06-24T03:42:04.595Z,99.99
2018-06-24T03:43:04.562Z,99.99
2018-06-24T03:44:04.543Z,99.99
2018-06-24T03:45:04.552Z,99.99
2018-06-24T03:46:04.514Z,99.99
2018-06-24T03:47:04.504Z,99.99
2018-06-24T03:48:04.503Z,99.99
2018-06-24T03:49:04.470Z,99.99
2018-06-24T03:50:04.469Z,99.99
2018-06-24T03:51:04.446Z,99.99
2018-06-24T03:52:04.440Z,99.99
2018-06-24T03:53:04.406Z,99.99
2018-06-24T03:54:04.394Z,99.99
2018-06-24T03:55:04.381Z,99.99
2018-06-24T03:56:04.367Z,99.99
2018-06-24T03:57:04.353Z,99.99
2018-06-24T03:58:04.368Z,99.99
2018-06-24T03:59:04.323Z,99.99
2018-06-24T04:00:04.306Z,99.99
2018-06-24T04:01:04.293Z,99.99
2018-06-24T04:02:04.280Z,99.99
2018-06-24T04:03:04.277Z,99.99
2018-06-24T04:04:04.272Z,99.99
2018-06-24T04:05:04.230Z,99.99
2018-06-24T04:06:04.217Z,99.99
2018-06-24T04:07:04.204Z,99.99
2018-06-24T04:08:04.197Z,99.99
2018-06-24T04:09:04.187Z,99.99
2018-06-24T04:10:04.150Z,99.99
2018-06-24T04:11:04.139Z,99.99
2018-06-24T04:12:04.132Z,99.99
2018-06-24T04:13:04.108Z,99.99
2018-06-24T04:14:04.089Z,99.99
2018-06-24T04:15:04.092Z,99.99
2018-06-24T04:16:04.063Z,99.99
2018-06-24T04:17:04.041Z,99.99
2018-06-24T04:18:04.026Z,99.99
2018-06-24T04:19:04.012Z,99.99
2018-06-24T04:20:04.022Z,99.99
2018-06-24T04:21:03.995Z,99.99
2018-06-24T04:22:03.968Z,99.99
2018-06-24T04:23:03.958Z,99.99
2018-06-24T04:24:03.943Z,99.99
2018-06-24T04:25:03.938Z,99.99
2018-06-24T04:26:03.932Z,99.99
2018-06-24T04:27:03.897Z,99.99
2018-06-24T04:28:03.917Z,99.99
2018-06-24T04:29:03.862Z,99.99
2018-06-24T04:30:03.855Z,99.99
2018-06-24T04:31:03.829Z,99.99
2018-06-24T04:32:03.817Z,99.99
2018-06-24T04:33:03.807Z,99.99
2018-06-24T04:34:03.807Z,99.99
2018-06-24T04:35:03.773Z,99.99
2018-06-24T04:36:03.770Z,99.99
2018-06-24T04:37:03.765Z,99.99
2018-06-24T04:38:03.724Z,99.99
2018-06-24T04:39:03.736Z,99.99
2018-06-24T04:40:03.702Z,99.99
2018-06-24T04:41:03.683Z,99.99
2018-06-24T04:42:03.683Z,99.99
2018-06-24T04:43:03.658Z,99.99
2018-06-24T04:44:03.640Z,99.99
2018-06-24T04:45:03.623Z,99.99
2018-06-24T04:46:03.611Z,99.99
2018-06-24T04:47:03.611Z,99.99
2018-06-24T04:48:03.596Z,99.99
2018-06-24T04:49:03.580Z,99.99
2018-06-24T04:50:03.551Z,99.99
2018-06-24T04:51:03.532Z,99.99
2018-06-24T04:52:03.520Z,99.99
2018-06-24T04:53:03.504Z,99.99
2018-06-24T04:54:03.510Z,99.99
2018-06-24T04:55:03.481Z,99.99
2018-06-24T04:56:03.456Z,99.99
2018-06-24T04:57:03.453Z,99.99
2018-06-24T04:58:03.449Z,99.99
2018-06-24T04:59:03.411Z,99.99
2018-06-24T05:00:03.418Z,99.99
2018-06-24T05:01:03.382Z,99.99
2018-06-24T05:02:03.375Z,99.99
2018-06-24T05:03:03.357Z,99.99
2018-06-24T05:04:03.343Z,99.99
2018-06-24T05:05:03.340Z,99.99
2018-06-24T05:06:03.325Z,99.99
2018-06-24T05:07:03.308Z,99.99
2018-06-24T05:08:03.286Z,99.99
2018-06-24T05:09:03.292Z,99.99
2018-06-24T05:10:03.250Z,99.99
2018-06-24T05:11:03.262Z,99.99
2018-06-24T05:12:03.229Z,99.99
2018-06-24T05:13:03.214Z,99.99
2018-06-24T05:14:03.202Z,99.99
2018-06-24T05:15:03.193Z,99.99
2018-06-24T05:16:03.170Z,99.99
2018-06-24T05:17:03.173Z,99.99
2018-06-24T05:18:03.142Z,99.99
2018-06-24T05:19:03.128Z,99.99
2018-06-24T05:20:03.128Z,99.99
2018-06-24T05:21:03.100Z,99.99
2018-06-24T05:22:03.821Z,99.99
2018-06-24T05:23:03.068Z,99.99
2018-06-24T05:24:03.055Z,99.99
2018-06-24T05:25:03.047Z,99.99
2018-06-24T05:26:03.027Z,99.99
2018-06-24T05:27:03.912Z,99.99
2018-06-24T05:28:03.014Z,99.99
2018-06-24T05:29:02.988Z,99.99
2018-06-24T05:30:02.972Z,99.99
2018-06-24T05:31:02.963Z,99.99
2018-06-24T05:32:02.966Z,99.99
2018-06-24T05:33:02.952Z,99.99
2018-06-24T05:34:02.923Z,99.99
2018-06-24T05:35:02.915Z,99.99
2018-06-24T05:36:02.898Z,99.99
2018-06-24T05:37:02.884Z,99.99
2018-06-24T05:38:02.863Z,99.99
2018-06-24T05:39:02.875Z,99.99
2018-06-24T05:40:02.850Z,99.99
2018-06-24T05:41:02.830Z,99.99
2018-06-24T05:42:02.812Z,99.99
2018-06-24T05:43:02.868Z,99.99
2018-06-24T05:44:02.805Z,99.99
2018-06-24T05:45:02.795Z,99.99
2018-06-24T05:46:02.757Z,99.99
2018-06-24T05:47:02.752Z,99.99
2018-06-24T05:48:02.733Z,99.99
2018-06-24T05:49:02.741Z,99.99
2018-06-24T05:50:02.704Z,99.99
2018-06-24T05:51:02.691Z,99.99
2018-06-24T05:52:02.680Z,99.99
2018-06-24T05:53:02.668Z,99.99
2018-06-24T05:54:02.671Z,99.99
2018-06-24T05:55:02.645Z,99.99
2018-06-24T05:56:02.621Z,99.99
2018-06-24T05:57:02.611Z,99.99
2018-06-24T05:58:02.600Z,99.99
2018-06-24T05:59:02.587Z,99.99
2018-06-24T06:00:02.591Z,99.99
2018-06-24T06:01:02.559Z,99.99
2018-06-24T06:02:02.545Z,99.99
2018-06-24T06:03:02.535Z,99.99
2018-06-24T06:04:02.520Z,99.99
2018-06-24T06:05:02.525Z,99.99
2018-06-24T06:06:02.506Z,99.99
2018-06-24T06:07:02.484Z,99.99
2018-06-24T06:08:02.469Z,99.99
2018-06-24T06:09:02.456Z,99.99
2018-06-24T06:10:02.494Z,99.99
2018-06-24T06:11:02.423Z,99.99
2018-06-24T06:12:02.430Z,99.99
2018-06-24T06:13:02.410Z,99.99
2018-06-24T06:14:02.393Z,99.99
2018-06-24T06:15:02.376Z,99.99
2018-06-24T06:16:02.383Z,99.99
2018-06-24T06:17:02.361Z,99.99
2018-06-24T06:18:02.337Z,99.99
2018-06-24T06:19:02.320Z,99.99
2018-06-24T06:20:02.311Z,99.99
2018-06-24T06:21:02.300Z,99.99
2018-06-24T06:22:02.302Z,99.99
2018-06-24T06:23:02.274Z,99.99
2018-06-24T06:24:02.261Z,99.99
2018-06-24T06:25:02.247Z,99.99
2018-06-24T06:26:02.234Z,99.99
2018-06-24T06:27:02.236Z,99.99
2018-06-24T06:28:02.229Z,99.99
2018-06-24T06:29:02.197Z,99.99
2018-06-24T06:30:02.191Z,99.99
2018-06-24T06:31:02.170Z,99.99
2018-06-24T06:32:02.155Z,99.99
2018-06-24T06:33:02.160Z,99.99
2018-06-24T06:34:02.130Z,99.99
2018-06-24T06:35:02.124Z,99.99
2018-06-24T06:36:02.101Z,99.99
2018-06-24T06:37:02.107Z,99.99
2018-06-24T06:38:02.113Z,99.99
2018-06-24T06:39:02.066Z,99.99
2018-06-24T06:40:02.066Z,99.99
2018-06-24T06:41:02.040Z,99.99
2018-06-24T06:42:02.028Z,99.99
2018-06-24T06:43:02.012Z,99.99
2018-06-24T06:44:02.019Z,99.99
2018-06-24T06:45:02.138Z,99.99
2018-06-24T06:46:01.978Z,99.99
2018-06-24T06:47:01.963Z,99.99
2018-06-24T06:48:01.979Z,99.99
2018-06-24T06:49:01.978Z,99.99
2018-06-24T06:50:01.936Z,99.99
2018-06-24T06:51:01.940Z,99.99
2018-06-24T06:52:01.903Z,99.99
2018-06-24T06:53:01.894Z,99.99
2018-06-24T06:54:01.919Z,99.99
2018-06-24T06:55:01.863Z,99.99
2018-06-24T06:56:01.862Z,99.99
2018-06-24T06:57:01.839Z,99.99
2018-06-24T06:58:01.829Z,99.99
2018-06-24T06:59:01.815Z,99.99
2018-06-24T07:00:01.840Z,99.99
2018-06-24T07:01:01.788Z,99.99
2018-06-24T07:02:01.775Z,99.99
2018-06-24T07:03:01.765Z,99.99
2018-06-24T07:04:01.748Z,99.99
2018-06-24T07:05:01.756Z,99.99
2018-06-24T07:06:01.731Z,99.99
2018-06-24T07:07:01.715Z,99.99
2018-06-24T07:08:01.705Z,99.99
2018-06-24T07:09:01.690Z,99.99
2018-06-24T07:10:01.693Z,99.99
2018-06-24T07:11:01.664Z,99.99
2018-06-24T07:12:01.652Z,99.99
2018-06-24T07:13:01.668Z,99.99
2018-06-24T07:14:01.629Z,99.99
2018-06-24T07:15:01.634Z,99.99
2018-06-24T07:16:01.601Z,99.99
2018-06-24T07:17:01.591Z,99.99
2018-06-24T07:18:01.575Z,99.99
2018-06-24T07:19:01.559Z,99.99
2018-06-24T07:20:01.549Z,99.58
2018-06-24T07:21:01.564Z,99.77
2018-06-24T07:22:01.542Z,99.68
2018-06-24T07:23:01.523Z,99.49
2018-06-24T07:24:01.528Z,97.95
2018-06-24T07:25:01.486Z,98.33
2018-06-24T07:26:01.495Z,99.77
2018-06-24T07:27:01.478Z,99.39
2018-06-24T07:28:01.469Z,99.58
2018-06-24T07:29:01.439Z,99.49
2018-06-24T07:30:01.439Z,99.99
2018-06-24T07:31:01.421Z,99.39
2018-06-24T07:32:01.440Z,99.58
2018-06-24T07:33:01.399Z,99.99
2018-06-24T07:34:01.392Z,99.99
2018-06-24T07:35:01.367Z,99.77
2018-06-24T07:36:01.360Z,99.87
2018-06-24T07:37:01.345Z,99.54
2018-06-24T07:38:01.347Z,98.10
2018-06-24T07:39:01.331Z,98.33
2018-06-24T07:40:01.311Z,99.99
2018-06-24T07:41:01.297Z,99.92
2018-06-24T07:42:01.297Z,98.77
2018-06-24T07:43:01.284Z,98.19
2018-06-24T07:44:01.262Z,98.10
2018-06-24T07:45:01.253Z,99.05
2018-06-24T07:46:01.233Z,99.63
2018-06-24T07:47:01.225Z,98.67
2018-06-24T07:48:01.229Z,98.62
2018-06-24T07:49:01.194Z,98.82
2018-06-24T07:50:01.186Z,98.14
2018-06-24T07:51:01.225Z,98.91
2018-06-24T07:52:01.157Z,99.99
2018-06-24T07:53:01.155Z,99.87
2018-06-24T07:54:01.160Z,99.99
2018-06-24T07:55:01.130Z,99.63
2018-06-24T07:56:01.115Z,99.44
2018-06-24T07:57:01.101Z,98.48
2018-06-24T07:58:01.085Z,97.42
2018-06-24T07:59:22.159Z,97.14
2018-06-24T08:00:01.065Z,96.18
2018-06-24T08:01:01.061Z,96.08
2018-06-24T08:02:01.036Z,96.27
2018-06-24T08:03:01.032Z,94.98
2018-06-24T08:04:01.032Z,95.07
2018-06-24T08:05:01.020Z,94.49
2018-06-24T08:06:00.995Z,94.69
2018-06-24T08:07:00.984Z,93.34
2018-06-24T08:08:00.974Z,93.44
2018-06-24T08:09:00.972Z,91.61
2018-06-24T08:10:00.949Z,93.10
2018-06-24T08:11:00.948Z,91.56
2018-06-24T08:12:00.927Z,91.18
2018-06-24T08:13:00.912Z,90.03
2018-06-24T08:14:00.911Z,90.03
2018-06-24T08:15:00.912Z,89.50
2018-06-24T08:16:00.882Z,90.08
2018-06-24T08:17:00.874Z,90.56
2018-06-24T08:18:00.867Z,91.42
2018-06-24T08:19:00.842Z,91.23
2018-06-24T08:20:00.833Z,90.75
2018-06-24T08:21:00.834Z,90.31
2018-06-24T08:22:00.806Z,90.03
2018-06-24T08:23:00.798Z,89.93
2018-06-24T08:24:00.788Z,89.21
2018-06-24T08:25:00.790Z,86.80
2018-06-24T08:26:00.781Z,86.42
2018-06-24T08:27:00.756Z,86.71
2018-06-24T08:28:00.742Z,86.13
2018-06-24T08:29:00.722Z,84.21
2018-06-24T08:30:00.719Z,85.65
2018-06-24T08:31:00.716Z,86.04
2018-06-24T08:32:00.700Z,84.50
2018-06-24T08:33:00.682Z,85.94
2018-06-24T08:34:00.676Z,86.22
2018-06-24T08:35:00.661Z,84.59
2018-06-24T08:36:00.662Z,83.83
2018-06-24T08:37:00.857Z,85.27
2018-06-24T08:38:00.630Z,82.67
2018-06-24T08:39:00.639Z,84.73
2018-06-24T08:40:00.610Z,84.88
2018-06-24T08:41:00.599Z,85.31
2018-06-24T08:42:00.587Z,85.40
2018-06-24T08:43:00.594Z,84.44
2018-06-24T08:44:00.581Z,83.96
2018-06-24T08:45:00.564Z,83.09
2018-06-24T08:46:00.552Z,82.61
2018-06-24T08:47:00.536Z,80.98
2018-06-24T08:48:00.518Z,83.58
2018-06-24T08:49:00.534Z,81.21
2018-06-24T08:50:00.502Z,83.52
2018-06-24T08:51:00.493Z,82.65
2018-06-24T08:52:00.484Z,79.67
2018-06-24T08:53:00.488Z,79.67
2018-06-24T08:54:00.460Z,77.46
2018-06-24T08:55:00.447Z,80.44
2018-06-24T08:56:00.439Z,80.15
2018-06-24T08:57:00.424Z,82.14
2018-06-24T08:58:00.434Z,80.60
2018-06-24T08:59:00.409Z,79.48
2018-06-24T09:00:00.396Z,79.67
2018-06-24T09:01:00.384Z,81.17
2018-06-24T09:02:00.373Z,82.23
2018-06-24T09:03:00.383Z,82.38
2018-06-24T09:04:00.355Z,82.29
2018-06-24T09:05:21.361Z,83.25
2018-06-24T09:06:00.335Z,84.01
2018-06-24T09:07:00.335Z,83.44
2018-06-24T09:08:00.363Z,84.25
2018-06-24T09:09:00.320Z,83.14
2018-06-24T09:10:00.293Z,83.62
2018-06-24T09:11:00.292Z,80.15
2018-06-24T09:12:00.273Z,80.06
2018-06-24T09:13:00.276Z,80.06
2018-06-24T09:14:00.390Z,79.63
2018-06-24T09:15:00.247Z,79.53
2018-06-24T09:16:00.325Z,79.53
2018-06-24T09:17:00.224Z,80.30
2018-06-24T09:18:00.237Z,76.69
2018-06-24T09:19:00.202Z,77.56
2018-06-24T09:20:00.207Z,76.88
2018-06-24T09:21:00.182Z,76.06
2018-06-24T09:22:00.208Z,75.28
2018-06-24T09:23:00.161Z,73.88
2018-06-24T09:24:00.153Z,74.22
2018-06-24T09:25:00.156Z,73.10
2018-06-24T09:26:00.129Z,73.20
2018-06-24T09:27:00.121Z,72.59
2018-06-24T09:28:00.112Z,73.74
2018-06-24T09:29:00.104Z,73.46
2018-06-24T09:30:00.114Z,73.46
2018-06-24T09:31:00.102Z,74.41
2018-06-24T09:32:00.075Z,75.76
2018-06-24T09:33:00.063Z,74.41
2018-06-24T09:34:00.049Z,74.07
2018-06-24T09:35:00.050Z,75.13
2018-06-24T09:36:00.032Z,73.68
2018-06-24T09:37:00.048Z,74.84
2018-06-24T09:38:00.011Z,71.31
2018-06-24T09:38:59.999Z,70.19
2018-06-24T09:39:59.996Z,67.33
2018-06-24T09:41:00.073Z,66.05
2018-06-24T09:41:59.979Z,63.34
2018-06-24T09:42:59.982Z,64.34
2018-06-24T09:43:59.967Z,63.60
2018-06-24T09:44:59.950Z,62.15
2018-06-24T09:45:59.942Z,61.21
2018-06-24T09:46:59.952Z,60.79
2018-06-24T09:47:59.925Z,62.47
2018-06-24T09:48:59.919Z,60.08
2018-06-24T09:49:59.908Z,61.25
2018-06-24T09:50:59.899Z,62.63
2018-06-24T09:51:59.894Z,64.05
2018-06-24T09:52:59.904Z,64.98
2018-06-24T09:53:59.877Z,64.43
2018-06-24T09:54:59.887Z,63.15
2018-06-24T09:55:59.864Z,61.80
2018-06-24T09:56:59.864Z,60.73
2018-06-24T09:57:59.854Z,59.93
2018-06-24T09:58:59.848Z,60.61
2018-06-24T09:59:59.835Z,61.44
2018-06-24T10:00:59.845Z,62.96
2018-06-24T10:01:59.830Z,64.31
2018-06-24T10:02:59.814Z,64.43
2018-06-24T10:03:59.821Z,64.28
2018-06-24T10:04:59.806Z,63.02
2018-06-24T10:06:00.711Z,62.70
2018-06-24T10:06:59.786Z,60.57
2018-06-24T10:07:59.780Z,59.22
2018-06-24T10:08:59.771Z,59.09
2018-06-24T10:09:59.783Z,60.03
2018-06-24T10:10:59.774Z,57.62
2018-06-24T10:11:59.754Z,58.58
2018-06-24T10:12:59.746Z,59.31
2018-06-24T10:13:59.743Z,57.19
2018-06-24T10:14:59.732Z,54.22
2018-06-24T10:15:59.737Z,51.83
2018-06-24T10:16:59.718Z,51.83
2018-06-24T10:17:59.714Z,51.08
2018-06-24T10:18:59.701Z,50.62
2018-06-24T10:19:59.700Z,48.88
2018-06-24T10:20:59.725Z,48.03
2018-06-24T10:21:59.691Z,48.61
2018-06-24T10:22:59.679Z,48.42
2018-06-24T10:23:59.675Z,49.39
2018-06-24T10:24:59.670Z,48.44
2018-06-24T10:25:59.741Z,48.93
2018-06-24T10:26:59.661Z,48.81
2018-06-24T10:27:59.658Z,48.54
2018-06-24T10:28:59.648Z,49.56
2018-06-24T10:29:59.645Z,48.81
2018-06-24T10:30:59.652Z,47.26
2018-06-24T10:31:59.633Z,46.41
2018-06-24T10:32:59.633Z,48.06
2018-06-24T10:33:59.634Z,48.64
2018-06-24T10:34:59.624Z,50.74
2018-06-24T10:35:59.635Z,50.77
2018-06-24T10:36:59.616Z,49.41
2018-06-24T10:37:59.614Z,49.37
2018-06-24T10:38:59.610Z,51.56
2018-06-24T10:39:59.608Z,51.64
2018-06-24T10:40:59.597Z,53.06
2018-06-24T10:41:59.608Z,53.81
2018-06-24T10:42:59.600Z,54.43
2018-06-24T10:43:59.594Z,55.49
2018-06-24T10:44:59.587Z,56.46
2018-06-24T10:45:59.585Z,55.36
2018-06-24T10:46:59.596Z,56.62
2018-06-24T10:47:59.573Z,57.20
2018-06-24T10:48:59.562Z,56.40
2018-06-24T10:49:59.559Z,55.92
2018-06-24T10:50:59.555Z,56.98
2018-06-24T10:51:59.573Z,57.46
2018-06-24T10:52:59.588Z,57.29
2018-06-24T10:53:59.534Z,56.72
2018-06-24T10:54:59.535Z,56.72
2018-06-24T10:55:59.528Z,56.65
2018-06-24T10:56:59.520Z,55.20
2018-06-24T10:57:59.531Z,55.49
2018-06-24T10:58:59.509Z,54.72
2018-06-24T10:59:59.501Z,54.53
2018-06-24T11:00:59.492Z,53.88
2018-06-24T11:01:59.529Z,53.11
2018-06-24T11:02:59.481Z,52.36
2018-06-24T11:03:59.473Z,52.94
2018-06-24T11:04:59.466Z,51.39
2018-06-24T11:05:59.482Z,50.65
2018-06-24T11:06:59.456Z,51.81
2018-06-24T11:07:59.466Z,50.13
2018-06-24T11:08:59.469Z,51.49
2018-06-24T11:09:59.434Z,51.85
2018-06-24T11:10:59.425Z,51.95
2018-06-24T11:11:59.443Z,52.53
2018-06-24T11:12:59.431Z,51.85
2018-06-24T11:13:59.412Z,53.20
2018-06-24T11:14:59.399Z,54.07
2018-06-24T11:15:59.415Z,54.62
2018-06-24T11:16:59.390Z,55.20
2018-06-24T11:17:59.383Z,54.55
2018-06-24T11:18:59.377Z,54.53
2018-06-24T11:19:59.367Z,53.11
2018-06-24T11:20:59.387Z,53.97
2018-06-24T11:21:59.357Z,53.61
2018-06-24T11:22:59.345Z,53.38
2018-06-24T11:23:59.348Z,51.76
2018-06-24T11:24:59.334Z,49.44
2018-06-24T11:25:59.352Z,50.02
2018-06-24T11:26:59.325Z,50.67
2018-06-24T11:27:59.317Z,50.71
2018-06-24T11:28:59.324Z,51.87
2018-06-24T11:29:59.307Z,52.00
2018-06-24T11:30:59.312Z,50.04
2018-06-24T11:31:59.313Z,50.52
2018-06-24T11:32:59.290Z,50.55
2018-06-24T11:33:59.290Z,52.00
2018-06-24T11:34:59.282Z,49.77
2018-06-24T11:35:59.293Z,49.63
2018-06-24T11:36:59.325Z,50.69
2018-06-24T11:37:59.275Z,51.59
2018-06-24T11:38:59.259Z,51.49
2018-06-24T11:39:59.253Z,50.84
2018-06-24T11:40:59.248Z,50.71
2018-06-24T11:41:59.253Z,52.17
2018-06-24T11:42:59.236Z,50.81
2018-06-24T11:43:59.234Z,51.10
2018-06-24T11:44:59.233Z,50.16
2018-06-24T11:45:59.221Z,48.95
2018-06-24T11:46:59.231Z,48.37
2018-06-24T11:47:59.337Z,47.60
2018-06-24T11:48:59.223Z,48.27
2018-06-24T11:49:59.199Z,47.84
2018-06-24T11:50:59.193Z,46.97
2018-06-24T11:51:59.207Z,46.53
2018-06-24T11:52:59.182Z,45.56
2018-06-24T11:53:59.194Z,43.45
2018-06-24T11:54:59.172Z,45.58
2018-06-24T11:55:59.172Z,44.32
2018-06-24T11:56:59.211Z,45.10
2018-06-24T11:57:59.165Z,44.78
2018-06-24T11:58:59.170Z,44.01
2018-06-24T11:59:59.159Z,44.26
2018-06-24T12:00:59.154Z,47.62
2018-06-24T12:01:59.156Z,48.86
2018-06-24T12:02:59.164Z,48.97
2018-06-24T12:03:59.148Z,49.39
2018-06-24T12:04:59.137Z,48.44
2018-06-24T12:05:59.150Z,48.74
2018-06-24T12:06:59.202Z,48.83
2018-06-24T12:07:59.128Z,47.84
2018-06-24T12:08:59.138Z,47.62
2018-06-24T12:09:59.116Z,48.44
2018-06-24T12:10:59.113Z,49.68
2018-06-24T12:11:59.109Z,51.25
2018-06-24T12:12:59.105Z,50.07
2018-06-24T12:13:59.099Z,51.61
2018-06-24T12:14:59.119Z,51.90
2018-06-24T12:15:59.119Z,51.03
2018-06-24T12:16:59.093Z,50.50
2018-06-24T12:17:59.085Z,50.12
2018-06-24T12:18:59.080Z,50.50
2018-06-24T12:19:59.073Z,49.24
2018-06-24T12:20:59.099Z,48.18
2018-06-24T12:21:59.107Z,48.74
2018-06-24T12:22:59.061Z,48.74
2018-06-24T12:23:59.054Z,48.83
2018-06-24T12:24:59.074Z,49.41
2018-06-24T12:25:59.061Z,49.12
2018-06-24T12:26:59.047Z,50.09
2018-06-24T12:27:59.035Z,50.76
2018-06-24T12:28:59.032Z,51.61
2018-06-24T12:29:59.021Z,51.73
2018-06-24T12:30:59.032Z,51.25
2018-06-24T12:31:59.026Z,51.08
2018-06-24T12:32:59.004Z,51.10
2018-06-24T12:33:59.004Z,50.43
2018-06-24T12:34:58.992Z,50.31
2018-06-24T12:35:58.994Z,49.02
2018-06-24T12:36:59.004Z,50.74
2018-06-24T12:37:58.978Z,52.45
2018-06-24T12:38:58.973Z,53.13
2018-06-24T12:39:58.964Z,53.11
2018-06-24T12:40:58.962Z,53.30
2018-06-24T12:41:58.971Z,54.53
2018-06-24T12:42:58.994Z,55.01
2018-06-24T12:43:58.941Z,55.88
2018-06-24T12:44:58.931Z,55.36
2018-06-24T12:45:58.929Z,55.36
2018-06-24T12:46:58.941Z,56.24
2018-06-24T12:47:58.917Z,57.10
2018-06-24T12:48:58.906Z,56.52
2018-06-24T12:49:58.900Z,58.36
2018-06-24T12:50:58.893Z,57.71
2018-06-24T12:51:58.880Z,57.29